sensor_id;sensor_type;location;lat;lon;timestamp;pressure;altitude;pressure_sealevel;temperature;humidity
7966;BME280;4028;43.272;26.932;2022-07-17T00:00:40;99236.44;;;23.66;100.00
7966;BME280;4028;43.272;26.932;2022-07-17T00:03:16;99241.22;;;23.64;100.00
7966;BME280;4028;43.272;26.932;2022-07-17T00:05:43;99240.22;;;23.65;100.00
7966;BME280;4028;43.272;26.932;2022-07-17T00:08:09;99238.97;;;23.61;100.00
7966;BME280;4028;43.272;26.932;2022-07-17T00:10:39;99240.69;;;23.55;100.00
7966;BME280;4028;43.272;26.932;2022-07-17T00:13:06;99241.97;;;23.53;100.00
7966;BME280;4028;43.272;26.932;2022-07-17T00:15:32;99213.69;;;23.37;100.00
7966;BME280;4028;43.272;26.932;2022-07-17T00:17:58;99237.47;;;23.47;100.00
7966;BME280;4028;43.272;26.932;2022-07-17T00:20:25;99209.88;;;23.26;100.00
7966;BME280;4028;43.272;26.932;2022-07-17T00:22:54;99248.72;;;23.44;100.00
7966;BME280;4028;43.272;26.932;2022-07-17T00:25:24;99246.47;;;23.41;100.00
7966;BME280;4028;43.272;26.932;2022-07-17T00:27:49;99245.25;;;23.37;100.00
7966;BME280;4028;43.272;26.932;2022-07-17T00:30:15;99231.16;;;23.16;100.00
7966;BME280;4028;43.272;26.932;2022-07-17T00:32:42;99240.47;;;23.20;100.00
7966;BME280;4028;43.272;26.932;2022-07-17T00:35:08;99243.66;;;23.11;100.00
7966;BME280;4028;43.272;26.932;2022-07-17T00:37:44;99239.16;;;23.04;100.00
7966;BME280;4028;43.272;26.932;2022-07-17T00:40:13;99239.75;;;23.06;100.00
7966;BME280;4028;43.272;26.932;2022-07-17T00:42:40;99231.97;;;22.98;100.00
7966;BME280;4028;43.272;26.932;2022-07-17T00:45:09;99240.97;;;23.11;100.00
7966;BME280;4028;43.272;26.932;2022-07-17T00:47:51;99241.19;;;23.09;100.00
7966;BME280;4028;43.272;26.932;2022-07-17T00:50:17;99204.09;;;22.79;100.00
7966;BME280;4028;43.272;26.932;2022-07-17T00:52:43;99215.94;;;22.78;100.00
7966;BME280;4028;43.272;26.932;2022-07-17T00:55:11;99195.50;;;22.64;100.00
7966;BME280;4028;43.272;26.932;2022-07-17T00:57:39;99223.41;;;22.76;100.00
7966;BME280;4028;43.272;26.932;2022-07-17T01:00:06;99234.94;;;22.90;100.00
7966;BME280;4028;43.272;26.932;2022-07-17T01:02:36;99241.56;;;22.88;100.00
7966;BME280;4028;43.272;26.932;2022-07-17T01:05:02;99230.59;;;22.89;100.00
7966;BME280;4028;43.272;26.932;2022-07-17T01:07:27;99239.09;;;22.86;100.00
7966;BME280;4028;43.272;26.932;2022-07-17T01:09:53;99245.97;;;22.89;100.00
7966;BME280;4028;43.272;26.932;2022-07-17T01:12:19;99240.13;;;22.85;100.00
7966;BME280;4028;43.272;26.932;2022-07-17T01:14:44;99244.53;;;22.79;100.00
7966;BME280;4028;43.272;26.932;2022-07-17T01:17:11;99246.69;;;22.71;100.00
7966;BME280;4028;43.272;26.932;2022-07-17T01:19:37;99237.38;;;22.67;100.00
7966;BME280;4028;43.272;26.932;2022-07-17T01:22:02;99237.25;;;22.55;100.00
7966;BME280;4028;43.272;26.932;2022-07-17T01:24:28;99255.22;;;22.68;100.00
7966;BME280;4028;43.272;26.932;2022-07-17T01:26:53;99252.13;;;22.64;100.00
7966;BME280;4028;43.272;26.932;2022-07-17T01:29:19;99249.88;;;22.61;100.00
7966;BME280;4028;43.272;26.932;2022-07-17T01:31:47;99246.97;;;22.63;100.00
7966;BME280;4028;43.272;26.932;2022-07-17T01:34:14;99248.66;;;22.57;100.00
7966;BME280;4028;43.272;26.932;2022-07-17T01:36:40;99246.41;;;22.54;100.00
7966;BME280;4028;43.272;26.932;2022-07-17T01:39:06;99233.63;;;22.43;100.00
7966;BME280;4028;43.272;26.932;2022-07-17T01:41:32;99245.19;;;22.50;100.00
7966;BME280;4028;43.272;26.932;2022-07-17T01:43:58;99247.06;;;22.49;100.00
7966;BME280;4028;43.272;26.932;2022-07-17T01:46:24;99242.88;;;22.53;100.00
7966;BME280;4028;43.272;26.932;2022-07-17T01:48:50;99248.94;;;22.49;100.00
7966;BME280;4028;43.272;26.932;2022-07-17T01:51:16;99250.84;;;22.42;100.00
7966;BME280;4028;43.272;26.932;2022-07-17T01:53:42;99242.97;;;22.40;100.00
7966;BME280;4028;43.272;26.932;2022-07-17T01:56:07;99241.72;;;22.43;100.00
7966;BME280;4028;43.272;26.932;2022-07-17T01:58:33;99248.13;;;22.42;100.00
7966;BME280;4028;43.272;26.932;2022-07-17T02:00:59;99241.28;;;22.46;100.00
7966;BME280;4028;43.272;26.932;2022-07-17T02:03:24;99242.91;;;22.47;100.00
7966;BME280;4028;43.272;26.932;2022-07-17T02:05:50;99242.09;;;22.46;100.00
7966;BME280;4028;43.272;26.932;2022-07-17T02:08:16;99241.44;;;22.51;100.00
7966;BME280;4028;43.272;26.932;2022-07-17T02:10:41;99249.59;;;22.44;100.00
7966;BME280;4028;43.272;26.932;2022-07-17T02:13:07;99244.63;;;22.41;100.00
7966;BME280;4028;43.272;26.932;2022-07-17T02:15:32;99242.53;;;22.43;100.00
7966;BME280;4028;43.272;26.932;2022-07-17T02:17:58;99231.13;;;22.41;100.00
7966;BME280;4028;43.272;26.932;2022-07-17T02:20:24;99234.66;;;22.42;100.00
7966;BME280;4028;43.272;26.932;2022-07-17T02:22:49;99244.13;;;22.51;100.00
7966;BME280;4028;43.272;26.932;2022-07-17T02:25:15;99239.19;;;22.48;100.00
7966;BME280;4028;43.272;26.932;2022-07-17T02:27:41;99234.88;;;22.40;100.00
7966;BME280;4028;43.272;26.932;2022-07-17T02:30:15;99241.00;;;22.54;100.00
7966;BME280;4028;43.272;26.932;2022-07-17T02:32:41;99174.31;;;22.18;100.00
7966;BME280;4028;43.272;26.932;2022-07-17T02:35:09;99237.66;;;22.58;100.00
7966;BME280;4028;43.272;26.932;2022-07-17T02:37:35;99252.53;;;22.68;100.00
7966;BME280;4028;43.272;26.932;2022-07-17T02:40:00;99246.13;;;22.62;100.00
7966;BME280;4028;43.272;26.932;2022-07-17T02:42:28;99250.81;;;22.73;100.00
7966;BME280;4028;43.272;26.932;2022-07-17T02:44:54;99228.19;;;22.49;100.00
7966;BME280;4028;43.272;26.932;2022-07-17T02:47:25;99244.38;;;22.74;100.00
7966;BME280;4028;43.272;26.932;2022-07-17T02:49:51;99260.09;;;22.77;100.00
7966;BME280;4028;43.272;26.932;2022-07-17T02:52:17;99260.91;;;22.84;100.00
7966;BME280;4028;43.272;26.932;2022-07-17T02:54:44;99260.50;;;22.81;100.00
7966;BME280;4028;43.272;26.932;2022-07-17T02:57:10;99265.06;;;22.80;100.00
7966;BME280;4028;43.272;26.932;2022-07-17T02:59:36;99267.22;;;22.72;100.00
7966;BME280;4028;43.272;26.932;2022-07-17T03:02:01;99267.88;;;22.67;100.00
7966;BME280;4028;43.272;26.932;2022-07-17T03:04:26;99255.00;;;22.69;100.00
7966;BME280;4028;43.272;26.932;2022-07-17T03:06:52;99263.59;;;22.84;100.00
7966;BME280;4028;43.272;26.932;2022-07-17T03:09:17;99273.75;;;22.82;100.00
7966;BME280;4028;43.272;26.932;2022-07-17T03:11:43;99266.56;;;22.76;100.00
7966;BME280;4028;43.272;26.932;2022-07-17T03:14:09;99260.63;;;22.68;100.00
7966;BME280;4028;43.272;26.932;2022-07-17T03:16:34;99249.50;;;22.57;100.00
7966;BME280;4028;43.272;26.932;2022-07-17T03:19:00;99258.91;;;22.48;100.00
7966;BME280;4028;43.272;26.932;2022-07-17T03:21:25;99259.09;;;22.47;100.00
7966;BME280;4028;43.272;26.932;2022-07-17T03:23:51;99260.31;;;22.51;100.00
7966;BME280;4028;43.272;26.932;2022-07-17T03:26:16;99258.72;;;22.43;100.00
7966;BME280;4028;43.272;26.932;2022-07-17T03:28:41;99258.75;;;22.37;100.00
7966;BME280;4028;43.272;26.932;2022-07-17T03:31:07;99267.00;;;22.42;100.00
7966;BME280;4028;43.272;26.932;2022-07-17T03:33:32;99264.13;;;22.43;100.00
7966;BME280;4028;43.272;26.932;2022-07-17T03:35:58;99269.19;;;22.58;100.00
7966;BME280;4028;43.272;26.932;2022-07-17T03:38:23;99278.72;;;22.61;100.00
7966;BME280;4028;43.272;26.932;2022-07-17T03:40:49;99284.72;;;22.88;100.00
7966;BME280;4028;43.272;26.932;2022-07-17T03:43:14;99282.09;;;23.31;100.00
7966;BME280;4028;43.272;26.932;2022-07-17T03:45:41;99280.53;;;23.78;85.47
7966;BME280;4028;43.272;26.932;2022-07-17T03:48:07;99272.22;;;24.28;79.02
7966;BME280;4028;43.272;26.932;2022-07-17T03:50:32;99281.31;;;24.87;71.03
7966;BME280;4028;43.272;26.932;2022-07-17T03:52:58;99283.38;;;25.39;65.82
7966;BME280;4028;43.272;26.932;2022-07-17T03:55:23;99287.56;;;25.82;63.19
7966;BME280;4028;43.272;26.932;2022-07-17T03:57:49;99292.59;;;26.02;60.46
7966;BME280;4028;43.272;26.932;2022-07-17T04:00:14;99299.84;;;26.41;58.17
7966;BME280;4028;43.272;26.932;2022-07-17T04:02:41;99300.25;;;26.62;56.03
7966;BME280;4028;43.272;26.932;2022-07-17T04:05:07;99274.19;;;26.78;54.74
7966;BME280;4028;43.272;26.932;2022-07-17T04:07:38;99318.13;;;27.42;53.05
7966;BME280;4028;43.272;26.932;2022-07-17T04:10:05;99322.47;;;27.60;52.13
7966;BME280;4028;43.272;26.932;2022-07-17T04:12:31;99320.78;;;27.59;51.45
7966;BME280;4028;43.272;26.932;2022-07-17T04:14:56;99323.25;;;27.99;49.79
7966;BME280;4028;43.272;26.932;2022-07-17T04:17:22;99316.25;;;28.03;49.03
7966;BME280;4028;43.272;26.932;2022-07-17T04:19:47;99314.91;;;28.82;47.58
7966;BME280;4028;43.272;26.932;2022-07-17T04:22:13;99328.78;;;29.44;45.90
7966;BME280;4028;43.272;26.932;2022-07-17T04:24:39;99322.53;;;30.01;44.53
7966;BME280;4028;43.272;26.932;2022-07-17T04:27:04;99330.81;;;30.17;43.47
7966;BME280;4028;43.272;26.932;2022-07-17T04:29:30;99333.72;;;30.78;42.34
7966;BME280;4028;43.272;26.932;2022-07-17T04:31:55;99338.38;;;31.18;41.46
7966;BME280;4028;43.272;26.932;2022-07-17T04:34:21;99333.94;;;31.53;40.28
7966;BME280;4028;43.272;26.932;2022-07-17T04:36:46;99328.19;;;32.40;39.29
7966;BME280;4028;43.272;26.932;2022-07-17T04:39:12;99307.50;;;33.02;37.63
7966;BME280;4028;43.272;26.932;2022-07-17T04:41:37;99318.19;;;33.61;37.00
7966;BME280;4028;43.272;26.932;2022-07-17T04:44:03;99340.63;;;34.35;35.53
7966;BME280;4028;43.272;26.932;2022-07-17T04:46:28;99320.75;;;33.77;35.43
7966;BME280;4028;43.272;26.932;2022-07-17T04:48:57;99351.03;;;33.96;35.18
7966;BME280;4028;43.272;26.932;2022-07-17T04:51:22;99336.28;;;34.53;34.46
7966;BME280;4028;43.272;26.932;2022-07-17T04:53:48;99344.97;;;34.60;34.29
7966;BME280;4028;43.272;26.932;2022-07-17T04:56:13;99348.47;;;35.17;33.60
7966;BME280;4028;43.272;26.932;2022-07-17T04:58:39;99353.25;;;34.74;33.50
7966;BME280;4028;43.272;26.932;2022-07-17T05:01:04;99349.97;;;35.10;32.97
7966;BME280;4028;43.272;26.932;2022-07-17T05:03:30;99358.50;;;35.27;32.67
7966;BME280;4028;43.272;26.932;2022-07-17T05:05:55;99359.78;;;35.49;32.37
7966;BME280;4028;43.272;26.932;2022-07-17T05:08:21;99363.81;;;35.37;31.72
7966;BME280;4028;43.272;26.932;2022-07-17T05:10:46;99364.19;;;35.31;33.08
7966;BME280;4028;43.272;26.932;2022-07-17T05:13:12;99364.25;;;34.74;33.29
7966;BME280;4028;43.272;26.932;2022-07-17T05:15:38;99365.94;;;34.32;33.56
7966;BME280;4028;43.272;26.932;2022-07-17T05:18:04;99362.84;;;33.38;35.19
7966;BME280;4028;43.272;26.932;2022-07-17T05:20:29;99370.94;;;32.36;36.73
7966;BME280;4028;43.272;26.932;2022-07-17T05:22:55;99372.47;;;30.70;38.46
7966;BME280;4028;43.272;26.932;2022-07-17T05:25:22;99374.38;;;30.01;39.77
7966;BME280;4028;43.272;26.932;2022-07-17T05:27:47;99380.22;;;29.73;41.06
7966;BME280;4028;43.272;26.932;2022-07-17T05:30:13;99380.06;;;29.52;41.26
7966;BME280;4028;43.272;26.932;2022-07-17T05:32:38;99380.28;;;29.83;41.22
7966;BME280;4028;43.272;26.932;2022-07-17T05:35:04;99382.34;;;29.61;41.69
7966;BME280;4028;43.272;26.932;2022-07-17T05:37:30;99390.03;;;29.69;41.67
7966;BME280;4028;43.272;26.932;2022-07-17T05:39:55;99392.34;;;29.92;41.54
7966;BME280;4028;43.272;26.932;2022-07-17T05:42:21;99394.72;;;30.26;41.96
7966;BME280;4028;43.272;26.932;2022-07-17T05:44:46;99398.00;;;30.28;42.03
7966;BME280;4028;43.272;26.932;2022-07-17T05:47:12;99410.28;;;29.83;41.64
7966;BME280;4028;43.272;26.932;2022-07-17T05:49:37;99402.84;;;29.73;42.43
7966;BME280;4028;43.272;26.932;2022-07-17T05:52:03;99407.72;;;29.66;43.25
7966;BME280;4028;43.272;26.932;2022-07-17T05:54:29;99400.63;;;29.28;43.50
7966;BME280;4028;43.272;26.932;2022-07-17T05:56:54;99389.72;;;29.01;43.50
7966;BME280;4028;43.272;26.932;2022-07-17T05:59:19;99409.69;;;29.39;44.87
7966;BME280;4028;43.272;26.932;2022-07-17T06:01:45;99408.41;;;29.51;44.13
7966;BME280;4028;43.272;26.932;2022-07-17T06:04:10;99408.81;;;29.65;44.55
7966;BME280;4028;43.272;26.932;2022-07-17T06:06:36;99380.28;;;29.46;44.25
7966;BME280;4028;43.272;26.932;2022-07-17T06:09:01;99412.28;;;29.56;43.98
7966;BME280;4028;43.272;26.932;2022-07-17T06:11:27;99410.47;;;29.34;43.41
7966;BME280;4028;43.272;26.932;2022-07-17T06:13:53;99408.41;;;29.51;43.88
7966;BME280;4028;43.272;26.932;2022-07-17T06:16:18;99423.03;;;29.72;44.96
7966;BME280;4028;43.272;26.932;2022-07-17T06:18:44;99419.34;;;29.94;45.02
7966;BME280;4028;43.272;26.932;2022-07-17T06:21:09;99413.78;;;29.78;43.15
7966;BME280;4028;43.272;26.932;2022-07-17T06:23:34;99421.72;;;29.80;43.84
7966;BME280;4028;43.272;26.932;2022-07-17T06:26:00;99417.53;;;29.67;45.21
7966;BME280;4028;43.272;26.932;2022-07-17T06:28:25;99418.47;;;29.83;44.46
7966;BME280;4028;43.272;26.932;2022-07-17T06:30:51;99399.59;;;29.76;43.64
7966;BME280;4028;43.272;26.932;2022-07-17T06:33:16;99425.63;;;29.89;43.34
7966;BME280;4028;43.272;26.932;2022-07-17T06:35:42;99410.47;;;29.71;45.28
7966;BME280;4028;43.272;26.932;2022-07-17T06:38:07;99419.41;;;30.09;43.79
7966;BME280;4028;43.272;26.932;2022-07-17T06:40:35;99418.72;;;30.29;44.74
7966;BME280;4028;43.272;26.932;2022-07-17T06:43:00;99417.75;;;30.61;44.22
7966;BME280;4028;43.272;26.932;2022-07-17T06:45:26;99383.31;;;30.49;43.75
7966;BME280;4028;43.272;26.932;2022-07-17T06:47:51;99418.34;;;30.68;41.51
7966;BME280;4028;43.272;26.932;2022-07-17T06:50:17;99421.13;;;30.88;43.57
7966;BME280;4028;43.272;26.932;2022-07-17T06:52:42;99425.94;;;30.66;43.56
7966;BME280;4028;43.272;26.932;2022-07-17T06:55:08;99419.50;;;30.82;43.43
7966;BME280;4028;43.272;26.932;2022-07-17T06:57:33;99424.97;;;30.92;43.39
7966;BME280;4028;43.272;26.932;2022-07-17T06:59:59;99432.38;;;31.12;43.26
7966;BME280;4028;43.272;26.932;2022-07-17T07:02:24;99427.75;;;31.23;41.08
7966;BME280;4028;43.272;26.932;2022-07-17T07:04:50;99428.03;;;31.31;41.81
7966;BME280;4028;43.272;26.932;2022-07-17T07:07:15;99425.03;;;31.43;40.72
7966;BME280;4028;43.272;26.932;2022-07-17T07:09:40;99441.13;;;31.09;40.97
7966;BME280;4028;43.272;26.932;2022-07-17T07:12:06;99434.06;;;31.44;41.34
7966;BME280;4028;43.272;26.932;2022-07-17T07:14:32;99436.19;;;31.77;42.23
7966;BME280;4028;43.272;26.932;2022-07-17T07:16:58;99436.78;;;31.54;41.32
7966;BME280;4028;43.272;26.932;2022-07-17T07:19:23;99437.03;;;31.68;41.30
7966;BME280;4028;43.272;26.932;2022-07-17T07:21:49;99435.94;;;31.79;41.08
7966;BME280;4028;43.272;26.932;2022-07-17T07:24:14;99437.31;;;31.61;41.39
7966;BME280;4028;43.272;26.932;2022-07-17T07:26:39;99437.56;;;32.00;39.54
7966;BME280;4028;43.272;26.932;2022-07-17T07:29:05;99436.66;;;32.30;40.00
7966;BME280;4028;43.272;26.932;2022-07-17T07:31:30;99428.72;;;32.24;39.60
7966;BME280;4028;43.272;26.932;2022-07-17T07:33:56;99440.16;;;32.51;40.29
7966;BME280;4028;43.272;26.932;2022-07-17T07:36:21;99433.50;;;32.68;38.88
7966;BME280;4028;43.272;26.932;2022-07-17T07:38:47;99432.63;;;31.97;39.10
7966;BME280;4028;43.272;26.932;2022-07-17T07:41:12;99440.44;;;32.34;40.38
7966;BME280;4028;43.272;26.932;2022-07-17T07:43:38;99428.34;;;32.61;39.32
7966;BME280;4028;43.272;26.932;2022-07-17T07:46:03;99440.38;;;32.60;39.08
7966;BME280;4028;43.272;26.932;2022-07-17T07:48:29;99451.06;;;32.62;39.16
7966;BME280;4028;43.272;26.932;2022-07-17T07:50:55;99441.88;;;32.92;40.01
7966;BME280;4028;43.272;26.932;2022-07-17T07:53:21;99450.47;;;33.19;38.65
7966;BME280;4028;43.272;26.932;2022-07-17T07:55:46;99447.09;;;33.32;39.02
7966;BME280;4028;43.272;26.932;2022-07-17T07:58:13;99455.47;;;33.46;38.13
7966;BME280;4028;43.272;26.932;2022-07-17T08:00:42;99451.88;;;33.51;37.92
7966;BME280;4028;43.272;26.932;2022-07-17T08:03:07;99444.53;;;33.75;36.74
7966;BME280;4028;43.272;26.932;2022-07-17T08:05:33;99443.38;;;34.10;35.76
7966;BME280;4028;43.272;26.932;2022-07-17T08:07:59;99446.28;;;34.19;36.86
7966;BME280;4028;43.272;26.932;2022-07-17T08:10:25;99455.06;;;33.92;37.56
7966;BME280;4028;43.272;26.932;2022-07-17T08:12:51;99453.84;;;33.45;37.74
7966;BME280;4028;43.272;26.932;2022-07-17T08:15:18;99454.53;;;33.61;38.30
7966;BME280;4028;43.272;26.932;2022-07-17T08:17:46;99453.72;;;33.89;38.21
7966;BME280;4028;43.272;26.932;2022-07-17T08:20:12;99446.38;;;34.09;38.09
7966;BME280;4028;43.272;26.932;2022-07-17T08:22:38;99460.06;;;34.14;37.22
7966;BME280;4028;43.272;26.932;2022-07-17T08:25:04;99453.97;;;33.25;38.11
7966;BME280;4028;43.272;26.932;2022-07-17T08:27:38;99466.34;;;33.22;38.66
7966;BME280;4028;43.272;26.932;2022-07-17T08:30:06;99471.28;;;33.20;39.04
7966;BME280;4028;43.272;26.932;2022-07-17T08:32:33;99452.91;;;33.21;38.36
7966;BME280;4028;43.272;26.932;2022-07-17T08:34:58;99471.06;;;33.85;37.29
7966;BME280;4028;43.272;26.932;2022-07-17T08:37:24;99466.78;;;34.03;36.99
7966;BME280;4028;43.272;26.932;2022-07-17T08:39:51;99464.25;;;33.77;36.69
7966;BME280;4028;43.272;26.932;2022-07-17T08:42:17;99444.75;;;33.50;36.17
7966;BME280;4028;43.272;26.932;2022-07-17T08:44:42;99463.06;;;33.20;37.41
7966;BME280;4028;43.272;26.932;2022-07-17T08:47:10;99454.78;;;33.65;36.58
7966;BME280;4028;43.272;26.932;2022-07-17T08:49:40;99474.56;;;33.91;37.41
7966;BME280;4028;43.272;26.932;2022-07-17T08:52:06;99456.97;;;33.97;37.32
7966;BME280;4028;43.272;26.932;2022-07-17T08:54:32;99453.56;;;34.29;36.33
7966;BME280;4028;43.272;26.932;2022-07-17T08:56:57;99455.16;;;34.11;35.83
7966;BME280;4028;43.272;26.932;2022-07-17T08:59:23;99456.13;;;33.33;37.85
7966;BME280;4028;43.272;26.932;2022-07-17T09:01:48;99457.28;;;32.77;37.91
7966;BME280;4028;43.272;26.932;2022-07-17T09:04:14;99462.03;;;32.56;38.29
7966;BME280;4028;43.272;26.932;2022-07-17T09:06:41;99456.19;;;31.63;39.47
7966;BME280;4028;43.272;26.932;2022-07-17T09:09:10;99460.00;;;31.72;39.02
7966;BME280;4028;43.272;26.932;2022-07-17T09:11:46;99458.31;;;32.17;39.92
7966;BME280;4028;43.272;26.932;2022-07-17T09:14:12;99460.78;;;32.88;38.46
7966;BME280;4028;43.272;26.932;2022-07-17T09:16:57;99466.91;;;32.70;38.14
7966;BME280;4028;43.272;26.932;2022-07-17T09:22:10;99458.31;;;32.22;38.43
7966;BME280;4028;43.272;26.932;2022-07-17T09:24:56;99454.25;;;31.89;39.21
7966;BME280;4028;43.272;26.932;2022-07-17T09:29:59;99450.19;;;31.66;38.96
7966;BME280;4028;43.272;26.932;2022-07-17T09:32:31;99452.75;;;32.47;38.69
7966;BME280;4028;43.272;26.932;2022-07-17T09:34:59;99449.78;;;32.98;36.40
7966;BME280;4028;43.272;26.932;2022-07-17T09:37:27;99452.22;;;33.44;36.00
7966;BME280;4028;43.272;26.932;2022-07-17T09:39:53;99433.31;;;33.43;36.37
7966;BME280;4028;43.272;26.932;2022-07-17T09:42:29;99445.47;;;32.82;36.46
7966;BME280;4028;43.272;26.932;2022-07-17T09:45:05;99439.78;;;33.18;36.73
7966;BME280;4028;43.272;26.932;2022-07-17T09:47:32;99446.09;;;33.81;36.23
7966;BME280;4028;43.272;26.932;2022-07-17T09:50:00;99458.44;;;33.55;37.08
7966;BME280;4028;43.272;26.932;2022-07-17T09:52:29;99450.53;;;33.09;37.02
7966;BME280;4028;43.272;26.932;2022-07-17T09:54:56;99442.53;;;32.68;37.17
7966;BME280;4028;43.272;26.932;2022-07-17T09:57:30;99444.06;;;32.30;37.58
7966;BME280;4028;43.272;26.932;2022-07-17T09:59:59;99451.06;;;32.62;37.95
7966;BME280;4028;43.272;26.932;2022-07-17T10:02:25;99439.47;;;32.75;36.31
7966;BME280;4028;43.272;26.932;2022-07-17T10:04:52;99445.44;;;32.92;35.00
7966;BME280;4028;43.272;26.932;2022-07-17T10:07:18;99445.81;;;33.15;36.31
7966;BME280;4028;43.272;26.932;2022-07-17T10:09:44;99430.63;;;32.93;36.32
7966;BME280;4028;43.272;26.932;2022-07-17T10:12:10;99447.34;;;33.31;34.99
7966;BME280;4028;43.272;26.932;2022-07-17T10:14:36;99419.22;;;33.15;35.46
7966;BME280;4028;43.272;26.932;2022-07-17T10:17:11;99457.00;;;32.79;35.48
7966;BME280;4028;43.272;26.932;2022-07-17T10:19:53;99430.75;;;32.68;nan
7966;BME280;4028;43.272;26.932;2022-07-17T10:22:19;99449.72;;;33.08;36.83
7966;BME280;4028;43.272;26.932;2022-07-17T10:27:25;99439.00;;;33.80;34.38
7966;BME280;4028;43.272;26.932;2022-07-17T10:30:08;99425.84;;;34.06;32.38
7966;BME280;4028;43.272;26.932;2022-07-17T10:32:35;99429.75;;;34.48;32.65
7966;BME280;4028;43.272;26.932;2022-07-17T10:40:03;99435.16;;;33.47;32.98
7966;BME280;4028;43.272;26.932;2022-07-17T10:42:39;99439.25;;;33.16;33.11
7966;BME280;4028;43.272;26.932;2022-07-17T10:45:09;99442.75;;;32.77;32.39
7966;BME280;4028;43.272;26.932;2022-07-17T10:47:59;99439.44;;;32.80;32.46
7966;BME280;4028;43.272;26.932;2022-07-17T10:50:34;99428.53;;;33.19;32.39
7966;BME280;4028;43.272;26.932;2022-07-17T10:55:45;99428.75;;;32.14;31.04
7966;BME280;4028;43.272;26.932;2022-07-17T11:03:45;99423.22;;;32.94;30.10
7966;BME280;4028;43.272;26.932;2022-07-17T11:06:25;99420.91;;;32.67;29.65
7966;BME280;4028;43.272;26.932;2022-07-17T11:09:00;99431.09;;;32.56;32.36
7966;BME280;4028;43.272;26.932;2022-07-17T11:16:48;99418.22;;;33.40;30.29
7966;BME280;4028;43.272;26.932;2022-07-17T11:21:58;99426.47;;;33.69;30.56
7966;BME280;4028;43.272;26.932;2022-07-17T11:24:24;99425.94;;;33.67;29.82
7966;BME280;4028;43.272;26.932;2022-07-17T11:26:51;99422.00;;;33.78;30.89
7966;BME280;4028;43.272;26.932;2022-07-17T11:29:18;99402.66;;;33.65;30.27
7966;BME280;4028;43.272;26.932;2022-07-17T11:31:44;99410.94;;;33.59;29.36
7966;BME280;4028;43.272;26.932;2022-07-17T11:34:11;99417.53;;;33.58;29.09
7966;BME280;4028;43.272;26.932;2022-07-17T11:36:43;99418.91;;;33.22;30.67
7966;BME280;4028;43.272;26.932;2022-07-17T11:39:13;99415.19;;;33.07;32.01
7966;BME280;4028;43.272;26.932;2022-07-17T11:41:40;99412.41;;;33.47;31.96
7966;BME280;4028;43.272;26.932;2022-07-17T11:44:09;99385.28;;;33.40;30.91
7966;BME280;4028;43.272;26.932;2022-07-17T11:46:36;99413.34;;;33.66;30.94
7966;BME280;4028;43.272;26.932;2022-07-17T11:49:03;99410.13;;;33.59;29.83
7966;BME280;4028;43.272;26.932;2022-07-17T11:51:41;99412.31;;;33.57;30.40
7966;BME280;4028;43.272;26.932;2022-07-17T11:54:11;99375.41;;;33.44;30.94
7966;BME280;4028;43.272;26.932;2022-07-17T11:56:38;99404.22;;;33.71;29.50
7966;BME280;4028;43.272;26.932;2022-07-17T11:59:04;99385.38;;;33.64;29.21
7966;BME280;4028;43.272;26.932;2022-07-17T12:01:44;99389.50;;;33.61;29.53
7966;BME280;4028;43.272;26.932;2022-07-17T12:04:14;99386.66;;;33.72;28.33
7966;BME280;4028;43.272;26.932;2022-07-17T12:06:40;99388.31;;;33.44;29.37
7966;BME280;4028;43.272;26.932;2022-07-17T12:09:06;99375.31;;;33.54;29.25
7966;BME280;4028;43.272;26.932;2022-07-17T12:11:33;99385.22;;;33.50;28.10
7966;BME280;4028;43.272;26.932;2022-07-17T12:14:07;99390.19;;;33.48;29.30
7966;BME280;4028;43.272;26.932;2022-07-17T12:16:35;99394.69;;;33.34;28.92
7966;BME280;4028;43.272;26.932;2022-07-17T12:19:06;99377.69;;;33.32;29.03
7966;BME280;4028;43.272;26.932;2022-07-17T12:21:46;99387.19;;;33.10;28.91
7966;BME280;4028;43.272;26.932;2022-07-17T12:24:18;99386.22;;;32.86;29.02
7966;BME280;4028;43.272;26.932;2022-07-17T12:26:44;99396.06;;;32.48;29.22
7966;BME280;4028;43.272;26.932;2022-07-17T12:29:10;99387.53;;;32.54;29.81
7966;BME280;4028;43.272;26.932;2022-07-17T12:31:35;99380.72;;;32.52;29.29
7966;BME280;4028;43.272;26.932;2022-07-17T12:34:01;99388.88;;;32.62;29.06
7966;BME280;4028;43.272;26.932;2022-07-17T12:36:26;99363.00;;;32.29;29.30
7966;BME280;4028;43.272;26.932;2022-07-17T12:38:52;99384.06;;;32.39;29.27
7966;BME280;4028;43.272;26.932;2022-07-17T12:41:18;99384.47;;;32.01;28.52
7966;BME280;4028;43.272;26.932;2022-07-17T12:43:43;99374.41;;;31.61;29.28
7966;BME280;4028;43.272;26.932;2022-07-17T12:46:09;99378.75;;;31.88;30.72
7966;BME280;4028;43.272;26.932;2022-07-17T12:48:35;99381.19;;;32.04;30.32
7966;BME280;4028;43.272;26.932;2022-07-17T12:51:03;99378.44;;;32.09;29.97
7966;BME280;4028;43.272;26.932;2022-07-17T12:53:29;99373.91;;;32.34;28.05
7966;BME280;4028;43.272;26.932;2022-07-17T12:55:54;99379.63;;;32.53;28.35
7966;BME280;4028;43.272;26.932;2022-07-17T12:58:20;99374.13;;;32.53;29.25
7966;BME280;4028;43.272;26.932;2022-07-17T13:00:45;99386.16;;;32.57;29.12
7966;BME280;4028;43.272;26.932;2022-07-17T13:03:11;99385.31;;;32.62;29.51
7966;BME280;4028;43.272;26.932;2022-07-17T13:05:36;99383.16;;;32.53;28.22
7966;BME280;4028;43.272;26.932;2022-07-17T13:08:02;99374.19;;;32.43;28.65
7966;BME280;4028;43.272;26.932;2022-07-17T13:10:28;99350.50;;;32.07;28.15
7966;BME280;4028;43.272;26.932;2022-07-17T13:12:54;99371.75;;;32.31;29.05
7966;BME280;4028;43.272;26.932;2022-07-17T13:15:19;99376.19;;;32.22;28.01
7966;BME280;4028;43.272;26.932;2022-07-17T13:17:45;99378.66;;;32.18;29.37
7966;BME280;4028;43.272;26.932;2022-07-17T13:20:11;99367.81;;;31.88;29.82
7966;BME280;4028;43.272;26.932;2022-07-17T13:22:36;99372.75;;;31.86;29.69
7966;BME280;4028;43.272;26.932;2022-07-17T13:25:03;99369.97;;;32.01;30.71
7966;BME280;4028;43.272;26.932;2022-07-17T13:27:29;99379.19;;;32.20;30.69
7966;BME280;4028;43.272;26.932;2022-07-17T13:29:54;99367.63;;;32.39;29.50
7966;BME280;4028;43.272;26.932;2022-07-17T13:32:20;99365.13;;;32.47;27.38
7966;BME280;4028;43.272;26.932;2022-07-17T13:34:45;99365.06;;;32.57;27.63